createdAt,value
2022-10-19T00:01:16.538Z,14.20
2022-10-19T00:03:46.402Z,12.50
2022-10-19T00:06:25.984Z,12.75
2022-10-19T00:09:04.653Z,13.23
2022-10-19T00:11:35.197Z,12.82
2022-10-19T00:14:02.376Z,12.65
2022-10-19T00:16:34.010Z,11.77
2022-10-19T00:19:05.353Z,12.38
2022-10-19T00:21:33.007Z,12.57
2022-10-19T00:23:59.746Z,11.70
2022-10-19T00:26:27.081Z,11.70
2022-10-19T00:28:55.856Z,11.85
2022-10-19T00:31:23.571Z,12.60
2022-10-19T00:33:50.645Z,10.82
2022-10-19T00:36:27.235Z,10.10
2022-10-19T00:38:55.874Z,10.05
2022-10-19T00:41:26.582Z,10.15
2022-10-19T00:43:59.766Z,10.85
2022-10-19T00:46:30.422Z,10.35
2022-10-19T00:49:13.786Z,10.60
2022-10-19T00:51:47.965Z,9.77
2022-10-19T00:54:17.666Z,9.55
2022-10-19T00:56:48.958Z,9.82
2022-10-19T00:59:21.031Z,9.50
2022-10-19T01:01:49.920Z,10.43
2022-10-19T01:04:18.221Z,10.95
2022-10-19T01:06:45.526Z,10.75
2022-10-19T01:09:12.461Z,11.13
2022-10-19T01:12:03.806Z,10.25
2022-10-19T01:15:15.107Z,11.07
2022-10-19T01:18:31.580Z,10.57
2022-10-19T01:21:17.512Z,9.95
2022-10-19T01:24:21.574Z,10.35
2022-10-19T01:27:24.505Z,11.55
2022-10-19T01:30:01.922Z,10.30
2022-10-19T01:32:55.987Z,12.30
2022-10-19T01:35:46.519Z,12.13
2022-10-19T01:38:44.580Z,14.18
2022-10-19T01:41:20.245Z,13.90
2022-10-19T01:44:19.163Z,13.25
2022-10-19T01:47:04.396Z,14.30
2022-10-19T01:50:01.462Z,14.32
2022-10-19T01:52:31.734Z,13.73
2022-10-19T01:55:04.394Z,12.80
2022-10-19T01:57:41.100Z,13.82
2022-10-19T02:00:13.061Z,13.75
2022-10-19T02:02:46.590Z,13.75
2022-10-19T02:05:17.225Z,13.93
2022-10-19T02:07:51.309Z,15.00
2022-10-19T02:10:20.269Z,15.20
2022-10-19T02:12:49.693Z,15.25
2022-10-19T02:15:22.629Z,14.13
2022-10-19T02:17:56.980Z,16.08
2022-10-19T02:20:24.408Z,15.90
2022-10-19T02:22:51.545Z,16.40
2022-10-19T02:25:19.293Z,16.05
2022-10-19T02:27:46.395Z,15.65
2022-10-19T02:30:19.536Z,17.48
2022-10-19T02:32:46.532Z,16.95
2022-10-19T02:35:15.479Z,19.27
2022-10-19T02:37:43.231Z,19.08
2022-10-19T02:40:11.447Z,17.00
2022-10-19T02:43:14.902Z,18.45
2022-10-19T02:46:00.300Z,17.77
2022-10-19T02:48:31.320Z,16.23
2022-10-19T02:50:58.237Z,16.95
2022-10-19T02:53:25.210Z,16.95
2022-10-19T02:55:52.245Z,16.85
2022-10-19T02:58:19.282Z,16.63
2022-10-19T03:00:46.129Z,15.80
2022-10-19T03:03:13.211Z,14.52
2022-10-19T03:05:40.105Z,16.50
2022-10-19T03:08:07.125Z,15.55
2022-10-19T03:10:34.004Z,15.75
2022-10-19T03:13:00.983Z,15.30
2022-10-19T03:15:29.954Z,14.00
2022-10-19T03:17:57.411Z,15.75
2022-10-19T03:20:24.381Z,13.27
2022-10-19T03:25:18.672Z,12.75
2022-10-19T03:27:45.884Z,13.65
2022-10-19T03:30:12.936Z,14.45
2022-10-19T03:32:40.021Z,12.25
2022-10-19T03:35:07.713Z,13.02
2022-10-19T03:37:35.075Z,12.35
2022-10-19T03:40:02.446Z,12.60
2022-10-19T03:42:29.620Z,10.93
2022-10-19T03:44:56.511Z,11.82
2022-10-19T03:47:23.748Z,11.60
2022-10-19T03:49:50.725Z,11.30
2022-10-19T03:52:19.440Z,11.93
2022-10-19T03:54:50.904Z,11.20
2022-10-19T03:57:18.410Z,12.40
2022-10-19T03:59:45.248Z,10.93
2022-10-19T04:02:12.248Z,11.60
2022-10-19T04:04:39.082Z,12.40
2022-10-19T04:07:06.036Z,11.30
2022-10-19T04:09:32.897Z,11.32
2022-10-19T04:11:59.879Z,11.35
2022-10-19T04:14:32.272Z,11.02
2022-10-19T04:17:04.426Z,11.82
2022-10-19T04:19:32.960Z,11.10
2022-10-19T04:22:00.249Z,11.48
2022-10-19T04:24:27.735Z,10.00
2022-10-19T04:26:56.110Z,10.30
2022-10-19T04:29:29.557Z,10.27
2022-10-19T04:31:57.890Z,9.82
2022-10-19T04:34:25.227Z,11.00
2022-10-19T04:36:53.503Z,11.27
2022-10-19T04:39:20.483Z,10.35
2022-10-19T04:41:47.418Z,11.13
2022-10-19T04:44:14.379Z,11.10
2022-10-19T04:46:41.391Z,10.88
2022-10-19T04:49:08.157Z,10.95
2022-10-19T04:51:35.432Z,11.27
2022-10-19T04:54:03.990Z,10.55
2022-10-19T04:56:32.369Z,11.10
2022-10-19T04:59:00.794Z,11.75
2022-10-19T05:01:31.077Z,11.07
2022-10-19T05:04:01.572Z,11.15
2022-10-19T05:06:31.347Z,10.95
2022-10-19T05:08:58.742Z,11.40
2022-10-19T05:11:27.306Z,10.93
2022-10-19T05:13:54.526Z,11.10
2022-10-19T05:16:25.941Z,10.13
2022-10-19T05:18:56.816Z,11.35
2022-10-19T05:21:24.901Z,10.50
2022-10-19T05:23:54.058Z,10.30
2022-10-19T05:26:24.972Z,11.23
2022-10-19T05:29:01.587Z,11.90
2022-10-19T05:31:32.398Z,11.70
2022-10-19T05:34:00.473Z,12.43
2022-10-19T05:36:38.607Z,11.40
2022-10-19T05:39:14.605Z,12.18
2022-10-19T05:41:45.399Z,11.65
2022-10-19T05:44:17.661Z,10.43
2022-10-19T05:46:45.349Z,12.07
2022-10-19T05:49:15.356Z,10.98
2022-10-19T05:51:43.403Z,11.52
2022-10-19T05:54:12.110Z,12.65
2022-10-19T05:56:40.944Z,13.23
2022-10-19T05:59:13.829Z,13.60
2022-10-19T06:01:40.872Z,11.18
2022-10-19T06:04:08.021Z,11.65
2022-10-19T06:06:35.143Z,11.35
2022-10-19T06:09:03.049Z,11.23
2022-10-19T06:11:35.093Z,11.50
2022-10-19T06:14:06.491Z,12.45
2022-10-19T06:16:34.816Z,13.48
2022-10-19T06:19:01.637Z,12.07
2022-10-19T06:21:31.689Z,14.07
2022-10-19T06:24:05.106Z,12.25
2022-10-19T06:26:34.334Z,12.75
2022-10-19T06:29:02.803Z,12.57
2022-10-19T06:31:33.203Z,12.23
2022-10-19T06:34:00.458Z,12.45
2022-10-19T06:36:30.626Z,12.50
2022-10-19T06:38:59.772Z,12.32
2022-10-19T06:41:27.106Z,11.70
2022-10-19T06:43:56.162Z,12.93
2022-10-19T06:46:25.783Z,13.00
2022-10-19T06:49:01.824Z,11.20
2022-10-19T06:51:32.056Z,12.88
2022-10-19T06:53:58.986Z,12.52
2022-10-19T06:56:27.319Z,14.20
2022-10-19T06:58:55.019Z,13.60
2022-10-19T07:01:23.405Z,14.45
2022-10-19T07:03:52.280Z,14.65
2022-10-19T07:06:20.632Z,15.48
2022-10-19T07:08:47.940Z,19.80
2022-10-19T07:11:18.579Z,13.75
2022-10-19T07:13:45.703Z,13.30
2022-10-19T07:16:19.817Z,11.38
2022-10-19T07:18:51.660Z,10.68
2022-10-19T07:21:21.910Z,10.93
2022-10-19T07:23:50.475Z,10.77
2022-10-19T07:26:27.743Z,10.23
2022-10-19T07:28:57.491Z,10.32
2022-10-19T07:31:27.075Z,9.68
2022-10-19T07:34:01.004Z,9.98
2022-10-19T07:36:32.025Z,8.73
2022-10-19T07:39:01.999Z,9.30
2022-10-19T07:41:29.125Z,8.98
2022-10-19T07:43:57.864Z,8.95
2022-10-19T07:46:33.766Z,8.82
2022-10-19T07:49:00.906Z,9.60
2022-10-19T07:53:57.495Z,9.02
2022-10-19T07:56:27.465Z,9.20
2022-10-19T07:58:57.611Z,8.60
2022-10-19T08:01:29.268Z,8.68
2022-10-19T08:04:55.496Z,7.75
2022-10-19T08:06:46.225Z,7.65
2022-10-19T08:09:27.656Z,7.35
2022-10-19T08:12:00.252Z,8.00
2022-10-19T08:14:27.473Z,7.57
2022-10-19T08:16:54.471Z,8.40
2022-10-19T08:19:22.657Z,7.07
2022-10-19T08:21:50.165Z,7.30
2022-10-19T08:24:19.840Z,7.10
2022-10-19T08:26:51.183Z,6.15
2022-10-19T08:29:21.653Z,5.85
2022-10-19T08:31:50.302Z,6.00
2022-10-19T08:34:17.516Z,5.22
2022-10-19T08:36:45.003Z,4.65
2022-10-19T08:39:12.804Z,4.20
2022-10-19T08:41:39.954Z,4.72
2022-10-19T08:44:09.338Z,4.75
2022-10-19T08:46:51.698Z,4.75
2022-10-19T08:49:23.600Z,3.00
2022-10-19T08:52:00.838Z,3.25
2022-10-19T08:55:00.992Z,3.67
2022-10-19T08:58:20.797Z,2.97
2022-10-19T09:01:05.683Z,3.33
2022-10-19T09:03:55.875Z,2.63
2022-10-19T09:06:41.204Z,2.65
2022-10-19T09:09:14.585Z,3.00
2022-10-19T09:11:48.095Z,3.10
2022-10-19T09:14:47.413Z,3.20
2022-10-19T09:17:17.168Z,2.47
2022-10-19T09:19:44.410Z,2.65
2022-10-19T09:22:32.713Z,2.67
2022-10-19T09:25:32.354Z,2.45
2022-10-19T09:28:19.591Z,2.97
2022-10-19T09:30:52.264Z,3.05
2022-10-19T09:33:38.726Z,3.08
2022-10-19T09:36:08.164Z,3.30
2022-10-19T09:38:35.179Z,2.92
2022-10-19T09:41:18.645Z,3.45
2022-10-19T09:43:53.407Z,2.80
2022-10-19T09:49:04.335Z,2.88
2022-10-19T09:51:52.150Z,3.05
2022-10-19T09:54:26.881Z,2.83
2022-10-19T09:56:56.180Z,2.92
2022-10-19T09:59:28.905Z,2.63
2022-10-19T10:02:20.886Z,2.83
2022-10-19T10:05:16.296Z,3.15
2022-10-19T10:07:43.949Z,2.78
2022-10-19T10:10:26.780Z,2.80
2022-10-19T10:12:59.845Z,3.05
2022-10-19T10:15:35.738Z,2.65
2022-10-19T10:18:03.904Z,2.10
2022-10-19T10:20:32.612Z,2.53
2022-10-19T10:23:04.535Z,1.73
2022-10-19T10:25:36.167Z,1.98
2022-10-19T10:28:24.588Z,2.10
2022-10-19T10:31:08.756Z,1.58
2022-10-19T10:33:45.033Z,1.80
2022-10-19T10:36:13.202Z,1.85
2022-10-19T10:38:49.871Z,1.75
2022-10-19T10:41:23.273Z,1.98
2022-10-19T10:44:06.840Z,1.60
2022-10-19T10:46:47.424Z,1.83
2022-10-19T10:49:30.115Z,2.15
2022-10-19T10:52:03.952Z,2.08
2022-10-19T10:54:33.326Z,1.70
2022-10-19T10:57:13.755Z,1.60
2022-10-19T10:59:45.651Z,1.63
2022-10-19T11:02:39.580Z,1.98
2022-10-19T11:05:29.450Z,3.65
2022-10-19T11:08:14.573Z,2.40
2022-10-19T11:11:09.055Z,2.00
2022-10-19T11:13:49.233Z,2.08
2022-10-19T11:16:22.007Z,1.85
2022-10-19T11:19:19.271Z,1.80
2022-10-19T11:22:04.523Z,1.73
2022-10-19T11:24:52.186Z,2.22
2022-10-19T11:27:46.635Z,2.25
2022-10-19T11:30:19.391Z,1.75
2022-10-19T11:33:24.963Z,1.70
2022-10-19T11:35:59.412Z,1.75
2022-10-19T11:39:04.694Z,2.13
2022-10-19T11:41:58.969Z,1.90
2022-10-19T11:44:36.064Z,2.03
2022-10-19T11:47:22.799Z,1.70
2022-10-19T11:50:11.729Z,2.00
2022-10-19T11:53:25.616Z,1.42
2022-10-19T11:56:19.428Z,1.98
2022-10-19T11:58:55.010Z,1.50
2022-10-19T12:01:50.980Z,1.58
2022-10-19T12:07:33.413Z,1.65
2022-10-19T12:10:39.356Z,1.45
2022-10-19T12:15:46.657Z,1.77
2022-10-19T12:18:36.821Z,1.85
2022-10-19T12:21:17.484Z,1.42
2022-10-19T12:23:49.544Z,1.38
2022-10-19T12:26:21.493Z,1.20
2022-10-19T12:29:00.627Z,1.42
2022-10-19T12:31:29.547Z,1.60
2022-10-19T12:34:08.091Z,1.30
2022-10-19T12:37:14.699Z,2.05
2022-10-19T12:40:12.135Z,1.30
2022-10-19T12:42:58.180Z,1.23
2022-10-19T12:45:33.494Z,1.00
2022-10-19T12:48:12.399Z,2.58
2022-10-19T12:50:48.725Z,2.15
2022-10-19T12:53:49.402Z,1.63
2022-10-19T12:56:26.846Z,1.20
2022-10-19T12:59:01.615Z,1.50
2022-10-19T13:04:22.674Z,1.10
2022-10-19T13:07:04.520Z,1.48
2022-10-19T13:09:48.301Z,1.30
2022-10-19T13:12:19.282Z,1.30
2022-10-19T13:15:03.361Z,1.60
2022-10-19T13:17:37.097Z,1.42
2022-10-19T13:20:13.305Z,1.88
2022-10-19T13:22:49.029Z,1.25
2022-10-19T13:25:34.331Z,1.10
2022-10-19T13:30:41.790Z,1.33
2022-10-19T13:33:33.427Z,1.85
2022-10-19T13:36:00.339Z,1.13
2022-10-19T13:38:42.630Z,1.65
2022-10-19T13:41:21.912Z,1.48
2022-10-19T13:44:19.268Z,1.02
2022-10-19T13:47:10.126Z,1.33
2022-10-19T13:50:37.185Z,1.73
2022-10-19T13:53:46.668Z,1.83
2022-10-19T13:56:46.787Z,1.30
2022-10-19T14:00:00.425Z,1.40
2022-10-19T14:03:07.947Z,1.50
2022-10-19T14:06:33.100Z,1.30
2022-10-19T14:09:20.865Z,1.38
2022-10-19T14:11:52.711Z,1.10
2022-10-19T14:14:22.602Z,1.67
2022-10-19T14:16:56.074Z,1.92
2022-10-19T14:19:31.586Z,2.10
2022-10-19T14:22:02.025Z,1.27
2022-10-19T14:24:36.346Z,1.10
2022-10-19T14:27:07.793Z,1.23
2022-10-19T14:29:48.176Z,1.33
2022-10-19T14:32:26.718Z,1.05
2022-10-19T14:35:27.101Z,0.90
2022-10-19T14:37:54.834Z,0.93
2022-10-19T14:40:26.797Z,3.13
2022-10-19T14:42:57.657Z,1.55
2022-10-19T14:45:30.771Z,1.65
2022-10-19T14:48:06.445Z,1.23
2022-10-19T14:50:47.280Z,1.75
2022-10-19T14:53:40.633Z,1.50
2022-10-19T14:56:19.879Z,1.50
2022-10-19T14:59:24.975Z,1.08
2022-10-19T15:01:56.905Z,1.43
2022-10-19T15:04:36.959Z,1.65
2022-10-19T15:07:16.857Z,1.00
2022-10-19T15:10:01.253Z,1.13
2022-10-19T15:12:42.913Z,1.50
2022-10-19T15:15:25.286Z,1.23
2022-10-19T15:18:00.213Z,1.08
2022-10-19T15:20:49.147Z,1.20
2022-10-19T15:23:46.147Z,1.05
2022-10-19T15:26:29.278Z,1.00
2022-10-19T15:29:22.168Z,1.35
2022-10-19T15:31:49.061Z,1.33
2022-10-19T15:34:25.720Z,0.95
2022-10-19T15:37:01.563Z,1.23
2022-10-19T15:39:41.172Z,1.13
2022-10-19T15:42:39.436Z,1.25
2022-10-19T15:45:38.627Z,1.45
2022-10-19T15:48:55.521Z,2.10
2022-10-19T15:51:25.796Z,1.70
2022-10-19T15:54:04.977Z,1.40
2022-10-19T15:56:38.629Z,1.70
2022-10-19T15:59:21.090Z,1.38
2022-10-19T16:01:55.053Z,1.27
2022-10-19T16:04:23.102Z,1.23
2022-10-19T16:06:50.143Z,1.30
2022-10-19T16:09:21.303Z,2.03
2022-10-19T16:11:49.155Z,1.20
2022-10-19T16:16:44.183Z,1.48
2022-10-19T16:19:11.238Z,1.48
2022-10-19T16:21:38.355Z,1.63
2022-10-19T16:24:05.678Z,1.60
2022-10-19T16:26:32.787Z,1.80
2022-10-19T16:29:01.654Z,1.27
2022-10-19T16:31:28.922Z,1.45
2022-10-19T16:33:55.825Z,1.23
2022-10-19T16:36:22.845Z,1.52
2022-10-19T16:38:49.918Z,1.60
2022-10-19T16:41:17.483Z,1.27
2022-10-19T16:43:44.361Z,1.27
2022-10-19T16:46:11.859Z,2.10
2022-10-19T16:48:38.663Z,1.80
2022-10-19T16:51:05.565Z,1.95
2022-10-19T16:53:36.752Z,2.30
2022-10-19T16:56:07.098Z,1.70
2022-10-19T16:58:34.069Z,1.92
2022-10-19T17:01:10.658Z,1.67
2022-10-19T17:03:37.780Z,1.80
2022-10-19T17:06:07.806Z,1.10
2022-10-19T17:09:02.333Z,1.00
2022-10-19T17:11:26.220Z,1.40
2022-10-19T17:13:58.674Z,0.88
2022-10-19T17:16:33.825Z,1.70
2022-10-19T17:19:05.766Z,1.88
2022-10-19T17:21:39.693Z,2.78
2022-10-19T17:24:14.700Z,1.77
2022-10-19T17:26:47.986Z,1.20
2022-10-19T17:29:14.839Z,1.63
2022-10-19T17:31:42.706Z,1.52
2022-10-19T17:34:10.704Z,1.33
2022-10-19T17:36:41.432Z,1.70
2022-10-19T17:39:14.672Z,1.65
2022-10-19T17:41:41.862Z,1.63
2022-10-19T17:44:08.683Z,1.98
2022-10-19T17:46:36.353Z,2.17
2022-10-19T17:49:04.799Z,2.08
2022-10-19T17:51:35.821Z,2.03
2022-10-19T17:54:11.007Z,2.05
2022-10-19T17:56:40.215Z,2.08
2022-10-19T17:59:09.088Z,1.95
2022-10-19T18:01:37.416Z,1.50
2022-10-19T18:04:05.746Z,2.38
2022-10-19T18:06:37.190Z,1.90
2022-10-19T18:09:08.897Z,1.60
2022-10-19T18:11:44.952Z,1.60
2022-10-19T18:14:13.177Z,2.10
2022-10-19T18:16:45.475Z,48.47
2022-10-19T18:19:16.179Z,38.70
2022-10-19T18:21:46.573Z,7.18
2022-10-19T18:24:19.808Z,5.15
2022-10-19T18:26:50.164Z,3.22
2022-10-19T18:29:21.791Z,2.85
2022-10-19T18:31:52.384Z,3.25
2022-10-19T18:34:25.408Z,2.58
2022-10-19T18:36:54.018Z,2.47
2022-10-19T18:39:21.254Z,11.27
2022-10-19T18:41:54.492Z,3.90
2022-10-19T18:44:27.255Z,3.88
2022-10-19T18:46:57.469Z,2.70
2022-10-19T18:49:25.099Z,3.00
2022-10-19T18:51:55.311Z,6.50
2022-10-19T18:54:26.471Z,3.83
2022-10-19T18:56:54.856Z,2.78
2022-10-19T18:59:22.549Z,2.55
2022-10-19T19:01:49.944Z,2.50
2022-10-19T19:04:16.914Z,1.85
2022-10-19T19:06:45.540Z,2.55
2022-10-19T19:09:13.387Z,2.25
2022-10-19T19:11:42.898Z,3.30
2022-10-19T19:14:17.324Z,3.15
2022-10-19T19:16:46.063Z,2.50
2022-10-19T19:19:20.683Z,2.33
2022-10-19T19:24:23.193Z,3.03
2022-10-19T19:26:53.727Z,2.80
2022-10-19T19:29:22.342Z,3.70
2022-10-19T19:31:50.276Z,4.70
2022-10-19T19:34:18.172Z,3.28
2022-10-19T19:36:49.081Z,3.10
2022-10-19T19:39:21.041Z,3.38
2022-10-19T19:41:50.037Z,3.60
2022-10-19T19:44:17.656Z,5.15
2022-10-19T19:46:44.838Z,4.05
2022-10-19T19:49:12.190Z,3.83
2022-10-19T19:51:39.462Z,3.53
2022-10-19T19:54:06.558Z,3.08
2022-10-19T19:56:33.819Z,6.78
2022-10-19T19:59:03.778Z,5.00
2022-10-19T20:01:32.716Z,4.07
2022-10-19T20:06:31.376Z,3.65
2022-10-19T20:08:58.426Z,4.00
2022-10-19T20:11:28.433Z,4.75
2022-10-19T20:13:55.994Z,4.15
2022-10-19T20:16:29.222Z,4.30
2022-10-19T20:19:13.601Z,4.22
2022-10-19T20:21:41.942Z,4.35
2022-10-19T20:24:09.828Z,5.03
2022-10-19T20:26:36.952Z,4.57
2022-10-19T20:29:05.335Z,5.88
2022-10-19T20:31:38.835Z,6.00
2022-10-19T20:34:13.744Z,6.60
2022-10-19T20:36:41.343Z,6.40
2022-10-19T20:39:09.826Z,5.50
2022-10-19T20:41:37.169Z,5.60
2022-10-19T20:44:04.610Z,4.93
2022-10-19T20:46:32.153Z,5.78
2022-10-19T20:49:01.595Z,5.63
2022-10-19T20:51:36.515Z,5.70
2022-10-19T20:54:07.191Z,5.47
2022-10-19T20:56:37.568Z,7.05
2022-10-19T20:59:14.634Z,6.03
2022-10-19T21:01:43.587Z,5.32
2022-10-19T21:04:13.395Z,6.75
2022-10-19T21:06:44.417Z,6.80
2022-10-19T21:09:14.782Z,6.90
2022-10-19T21:11:43.771Z,5.88
2022-10-19T21:14:17.900Z,5.60
2022-10-19T21:16:45.774Z,5.10
2022-10-19T21:19:21.377Z,4.90
2022-10-19T21:21:55.430Z,5.53
2022-10-19T21:24:26.985Z,5.82
2022-10-19T21:26:54.705Z,5.20
2022-10-19T21:29:21.796Z,5.10
2022-10-19T21:31:53.263Z,4.13
2022-10-19T21:34:25.240Z,4.90
2022-10-19T21:36:52.924Z,5.22
2022-10-19T21:39:20.444Z,4.65
2022-10-19T21:41:48.746Z,4.68
2022-10-19T21:44:17.699Z,6.10
2022-10-19T21:46:48.086Z,6.40
2022-10-19T21:49:16.440Z,5.43
2022-10-19T21:51:54.495Z,6.18
2022-10-19T21:54:25.199Z,5.75
2022-10-19T21:56:53.408Z,5.00
2022-10-19T21:59:20.419Z,5.13
2022-10-19T22:01:47.616Z,4.45
2022-10-19T22:04:17.866Z,4.72
2022-10-19T22:06:45.353Z,5.85
2022-10-19T22:09:19.624Z,5.10
2022-10-19T22:11:46.826Z,5.38
2022-10-19T22:14:16.059Z,5.63
2022-10-19T22:16:43.126Z,5.43
2022-10-19T22:19:10.630Z,6.75
2022-10-19T22:24:09.939Z,5.93
2022-10-19T22:26:42.526Z,5.80
2022-10-19T22:29:09.663Z,5.20
2022-10-19T22:31:37.513Z,7.00
2022-10-19T22:34:08.898Z,5.78
2022-10-19T22:36:36.426Z,6.00
2022-10-19T22:39:04.518Z,6.35
2022-10-19T22:42:46.985Z,5.55
2022-10-19T22:45:13.789Z,6.20
2022-10-19T22:47:40.921Z,6.57
2022-10-19T22:50:11.670Z,6.75
2022-10-19T22:52:39.145Z,7.57
2022-10-19T22:55:06.466Z,6.90
2022-10-19T22:57:33.898Z,6.97
2022-10-19T23:00:00.741Z,7.72
2022-10-19T23:02:29.452Z,8.52
2022-10-19T23:04:56.372Z,7.65
2022-10-19T23:07:23.729Z,7.63
2022-10-19T23:09:50.611Z,7.45
2022-10-19T23:12:17.658Z,7.43
2022-10-19T23:14:44.532Z,8.75
2022-10-19T23:17:11.527Z,8.55
2022-10-19T23:19:38.581Z,9.48
2022-10-19T23:22:05.660Z,9.07
2022-10-19T23:24:32.557Z,9.57
2022-10-19T23:26:59.669Z,10.35
2022-10-19T23:29:26.821Z,8.95
2022-10-19T23:31:53.958Z,8.35
2022-10-19T23:34:21.205Z,9.82
2022-10-19T23:36:48.320Z,8.95
2022-10-19T23:39:15.252Z,8.63
2022-10-19T23:41:42.302Z,10.52
2022-10-19T23:44:10.302Z,9.27
2022-10-19T23:46:37.213Z,9.57
2022-10-19T23:49:04.055Z,8.95
2022-10-19T23:51:31.003Z,9.05
2022-10-19T23:53:57.898Z,8.90
2022-10-19T23:56:28.536Z,9.50
2022-10-19T23:58:56.388Z,8.77
